sensor_id;sensor_type;location;lat;lon;timestamp;temperature;humidity
2523;DHT22;1272;53.332;9.860;2023-12-14T00:02:03;4.00;99.90
2523;DHT22;1272;53.332;9.860;2023-12-14T00:04:28;4.00;99.90
2523;DHT22;1272;53.332;9.860;2023-12-14T00:06:54;4.00;99.90
2523;DHT22;1272;53.332;9.860;2023-12-14T00:09:20;4.00;99.90
2523;DHT22;1272;53.332;9.860;2023-12-14T00:11:45;3.90;99.90
2523;DHT22;1272;53.332;9.860;2023-12-14T00:14:11;3.90;99.90
2523;DHT22;1272;53.332;9.860;2023-12-14T00:16:37;3.90;99.90
2523;DHT22;1272;53.332;9.860;2023-12-14T00:19:02;3.90;99.90
2523;DHT22;1272;53.332;9.860;2023-12-14T00:21:28;3.90;99.90
2523;DHT22;1272;53.332;9.860;2023-12-14T00:23:54;3.90;99.90
2523;DHT22;1272;53.332;9.860;2023-12-14T00:26:19;3.90;99.90
2523;DHT22;1272;53.332;9.860;2023-12-14T00:28:45;3.90;99.90
2523;DHT22;1272;53.332;9.860;2023-12-14T00:31:11;3.90;99.90
2523;DHT22;1272;53.332;9.860;2023-12-14T00:33:36;3.90;99.90
2523;DHT22;1272;53.332;9.860;2023-12-14T00:36:02;3.90;99.90
2523;DHT22;1272;53.332;9.860;2023-12-14T00:38:28;4.00;99.90
2523;DHT22;1272;53.332;9.860;2023-12-14T00:40:54;4.00;99.90
2523;DHT22;1272;53.332;9.860;2023-12-14T00:43:19;4.00;99.90
2523;DHT22;1272;53.332;9.860;2023-12-14T00:45:45;4.10;99.90
2523;DHT22;1272;53.332;9.860;2023-12-14T00:48:11;4.10;99.90
2523;DHT22;1272;53.332;9.860;2023-12-14T00:50:37;4.00;99.90
2523;DHT22;1272;53.332;9.860;2023-12-14T00:53:02;4.10;99.90
2523;DHT22;1272;53.332;9.860;2023-12-14T00:55:28;4.10;99.90
2523;DHT22;1272;53.332;9.860;2023-12-14T00:57:54;4.10;99.90
2523;DHT22;1272;53.332;9.860;2023-12-14T01:00:19;4.10;99.90
2523;DHT22;1272;53.332;9.860;2023-12-14T01:02:45;4.10;99.90
2523;DHT22;1272;53.332;9.860;2023-12-14T01:05:11;4.00;99.90
2523;DHT22;1272;53.332;9.860;2023-12-14T01:07:36;4.10;99.90
2523;DHT22;1272;53.332;9.860;2023-12-14T01:10:03;4.10;99.90
2523;DHT22;1272;53.332;9.860;2023-12-14T01:12:29;4.10;99.90
2523;DHT22;1272;53.332;9.860;2023-12-14T01:14:55;4.10;99.90
2523;DHT22;1272;53.332;9.860;2023-12-14T01:17:20;4.00;99.90
2523;DHT22;1272;53.332;9.860;2023-12-14T01:19:46;4.10;99.90
2523;DHT22;1272;53.332;9.860;2023-12-14T01:22:11;4.10;99.90
2523;DHT22;1272;53.332;9.860;2023-12-14T01:24:37;4.10;99.90
2523;DHT22;1272;53.332;9.860;2023-12-14T01:27:03;4.10;99.90
2523;DHT22;1272;53.332;9.860;2023-12-14T01:29:29;4.10;99.90
2523;DHT22;1272;53.332;9.860;2023-12-14T01:31:54;4.20;99.90
2523;DHT22;1272;53.332;9.860;2023-12-14T01:34:20;4.20;99.90
2523;DHT22;1272;53.332;9.860;2023-12-14T01:36:46;4.10;99.90
2523;DHT22;1272;53.332;9.860;2023-12-14T01:39:11;4.10;99.90
2523;DHT22;1272;53.332;9.860;2023-12-14T01:41:37;4.10;99.90
2523;DHT22;1272;53.332;9.860;2023-12-14T01:44:03;4.10;99.90
2523;DHT22;1272;53.332;9.860;2023-12-14T01:46:29;4.10;99.90
2523;DHT22;1272;53.332;9.860;2023-12-14T01:48:54;4.20;99.90
2523;DHT22;1272;53.332;9.860;2023-12-14T01:51:20;4.10;99.90
2523;DHT22;1272;53.332;9.860;2023-12-14T01:53:45;4.20;99.90
2523;DHT22;1272;53.332;9.860;2023-12-14T01:56:11;4.20;99.90
2523;DHT22;1272;53.332;9.860;2023-12-14T01:58:37;4.10;99.90
2523;DHT22;1272;53.332;9.860;2023-12-14T02:01:21;4.10;99.90
2523;DHT22;1272;53.332;9.860;2023-12-14T02:03:50;4.10;99.90
2523;DHT22;1272;53.332;9.860;2023-12-14T02:06:17;4.10;99.90
2523;DHT22;1272;53.332;9.860;2023-12-14T02:08:42;4.10;99.90
2523;DHT22;1272;53.332;9.860;2023-12-14T02:11:08;4.10;99.90
2523;DHT22;1272;53.332;9.860;2023-12-14T02:13:34;4.20;99.90
2523;DHT22;1272;53.332;9.860;2023-12-14T02:15:59;4.20;99.90
2523;DHT22;1272;53.332;9.860;2023-12-14T02:18:25;4.20;99.90
2523;DHT22;1272;53.332;9.860;2023-12-14T02:20:52;4.20;99.90
2523;DHT22;1272;53.332;9.860;2023-12-14T02:23:17;4.20;99.90
2523;DHT22;1272;53.332;9.860;2023-12-14T02:25:43;4.20;99.90
2523;DHT22;1272;53.332;9.860;2023-12-14T02:28:09;4.20;99.90
2523;DHT22;1272;53.332;9.860;2023-12-14T02:30:34;4.30;99.90
2523;DHT22;1272;53.332;9.860;2023-12-14T02:33:00;4.30;99.90
2523;DHT22;1272;53.332;9.860;2023-12-14T02:35:26;4.30;99.90
2523;DHT22;1272;53.332;9.860;2023-12-14T02:37:51;4.20;99.90
2523;DHT22;1272;53.332;9.860;2023-12-14T02:40:18;4.20;99.90
2523;DHT22;1272;53.332;9.860;2023-12-14T02:42:44;4.30;99.90
2523;DHT22;1272;53.332;9.860;2023-12-14T02:45:10;4.20;99.90
2523;DHT22;1272;53.332;9.860;2023-12-14T02:47:35;4.20;99.90
2523;DHT22;1272;53.332;9.860;2023-12-14T02:50:01;4.20;99.90
2523;DHT22;1272;53.332;9.860;2023-12-14T02:52:27;4.20;99.90
2523;DHT22;1272;53.332;9.860;2023-12-14T02:54:53;4.20;99.90
2523;DHT22;1272;53.332;9.860;2023-12-14T02:57:18;4.20;99.90
2523;DHT22;1272;53.332;9.860;2023-12-14T02:59:44;4.20;99.90
2523;DHT22;1272;53.332;9.860;2023-12-14T03:02:10;4.20;99.90
2523;DHT22;1272;53.332;9.860;2023-12-14T03:04:38;4.10;99.90
2523;DHT22;1272;53.332;9.860;2023-12-14T03:07:05;4.20;99.90
2523;DHT22;1272;53.332;9.860;2023-12-14T03:09:31;4.20;99.90
2523;DHT22;1272;53.332;9.860;2023-12-14T03:11:56;4.20;99.90
2523;DHT22;1272;53.332;9.860;2023-12-14T03:14:23;4.20;99.90
2523;DHT22;1272;53.332;9.860;2023-12-14T03:16:48;4.20;99.90
2523;DHT22;1272;53.332;9.860;2023-12-14T03:19:15;4.20;99.90
2523;DHT22;1272;53.332;9.860;2023-12-14T03:21:41;4.20;99.90
2523;DHT22;1272;53.332;9.860;2023-12-14T03:24:07;4.20;99.90
2523;DHT22;1272;53.332;9.860;2023-12-14T03:26:33;4.20;99.90
2523;DHT22;1272;53.332;9.860;2023-12-14T03:28:58;4.20;99.90
2523;DHT22;1272;53.332;9.860;2023-12-14T03:31:24;4.20;99.90
2523;DHT22;1272;53.332;9.860;2023-12-14T03:33:50;4.30;99.90
2523;DHT22;1272;53.332;9.860;2023-12-14T03:36:16;4.30;99.90
2523;DHT22;1272;53.332;9.860;2023-12-14T03:38:41;4.30;99.90
2523;DHT22;1272;53.332;9.860;2023-12-14T03:41:07;4.20;99.90
2523;DHT22;1272;53.332;9.860;2023-12-14T03:43:33;4.20;99.90
2523;DHT22;1272;53.332;9.860;2023-12-14T03:45:58;4.20;99.90
2523;DHT22;1272;53.332;9.860;2023-12-14T03:48:24;4.30;99.90
2523;DHT22;1272;53.332;9.860;2023-12-14T03:50:50;4.30;99.90
2523;DHT22;1272;53.332;9.860;2023-12-14T03:53:15;4.40;99.90
2523;DHT22;1272;53.332;9.860;2023-12-14T03:55:41;4.30;99.90
2523;DHT22;1272;53.332;9.860;2023-12-14T03:58:07;4.30;99.90
2523;DHT22;1272;53.332;9.860;2023-12-14T04:00:32;4.30;99.90
2523;DHT22;1272;53.332;9.860;2023-12-14T04:02:58;4.20;99.90
2523;DHT22;1272;53.332;9.860;2023-12-14T04:05:24;4.20;99.90
2523;DHT22;1272;53.332;9.860;2023-12-14T04:07:49;4.30;99.90
2523;DHT22;1272;53.332;9.860;2023-12-14T04:10:15;4.30;99.90
2523;DHT22;1272;53.332;9.860;2023-12-14T04:12:41;4.30;99.90
2523;DHT22;1272;53.332;9.860;2023-12-14T04:15:08;4.30;99.90
2523;DHT22;1272;53.332;9.860;2023-12-14T04:17:34;4.30;99.90
2523;DHT22;1272;53.332;9.860;2023-12-14T04:20:00;4.30;99.90
2523;DHT22;1272;53.332;9.860;2023-12-14T04:22:27;4.40;99.90
2523;DHT22;1272;53.332;9.860;2023-12-14T04:24:52;4.30;99.90
2523;DHT22;1272;53.332;9.860;2023-12-14T04:27:18;4.30;99.90
2523;DHT22;1272;53.332;9.860;2023-12-14T04:29:44;4.30;99.90
2523;DHT22;1272;53.332;9.860;2023-12-14T04:32:10;4.30;99.90
2523;DHT22;1272;53.332;9.860;2023-12-14T04:34:35;4.30;99.90
2523;DHT22;1272;53.332;9.860;2023-12-14T04:37:01;4.30;99.90
2523;DHT22;1272;53.332;9.860;2023-12-14T04:39:27;4.30;99.90
2523;DHT22;1272;53.332;9.860;2023-12-14T04:41:53;4.30;99.90
2523;DHT22;1272;53.332;9.860;2023-12-14T04:44:20;4.40;99.90
2523;DHT22;1272;53.332;9.860;2023-12-14T04:46:47;4.40;99.90
2523;DHT22;1272;53.332;9.860;2023-12-14T04:49:12;4.30;99.90
2523;DHT22;1272;53.332;9.860;2023-12-14T04:51:38;4.30;99.90
2523;DHT22;1272;53.332;9.860;2023-12-14T04:54:04;4.30;99.90
2523;DHT22;1272;53.332;9.860;2023-12-14T04:56:29;4.30;99.90
2523;DHT22;1272;53.332;9.860;2023-12-14T04:58:55;4.40;99.90
2523;DHT22;1272;53.332;9.860;2023-12-14T05:01:21;4.30;99.90
2523;DHT22;1272;53.332;9.860;2023-12-14T05:03:47;4.40;99.90
2523;DHT22;1272;53.332;9.860;2023-12-14T05:06:13;4.40;99.90
2523;DHT22;1272;53.332;9.860;2023-12-14T05:08:38;4.30;99.90
2523;DHT22;1272;53.332;9.860;2023-12-14T05:11:04;4.30;99.90
2523;DHT22;1272;53.332;9.860;2023-12-14T05:13:30;4.30;99.90
2523;DHT22;1272;53.332;9.860;2023-12-14T05:15:56;4.30;99.90
2523;DHT22;1272;53.332;9.860;2023-12-14T05:18:23;4.40;99.90
2523;DHT22;1272;53.332;9.860;2023-12-14T05:20:50;4.40;99.90
2523;DHT22;1272;53.332;9.860;2023-12-14T05:23:15;4.40;99.90
2523;DHT22;1272;53.332;9.860;2023-12-14T05:25:41;4.40;99.90
2523;DHT22;1272;53.332;9.860;2023-12-14T05:28:07;4.30;99.90
2523;DHT22;1272;53.332;9.860;2023-12-14T05:30:32;4.30;99.90
2523;DHT22;1272;53.332;9.860;2023-12-14T05:32:58;4.30;99.90
2523;DHT22;1272;53.332;9.860;2023-12-14T05:35:24;4.30;99.90
2523;DHT22;1272;53.332;9.860;2023-12-14T05:37:49;4.30;99.90
2523;DHT22;1272;53.332;9.860;2023-12-14T05:40:15;4.30;99.90
2523;DHT22;1272;53.332;9.860;2023-12-14T05:42:41;4.30;99.90
2523;DHT22;1272;53.332;9.860;2023-12-14T05:45:07;4.30;99.90
2523;DHT22;1272;53.332;9.860;2023-12-14T05:47:33;4.30;99.90
2523;DHT22;1272;53.332;9.860;2023-12-14T05:50:00;4.30;99.90
2523;DHT22;1272;53.332;9.860;2023-12-14T05:52:26;4.30;99.90
2523;DHT22;1272;53.332;9.860;2023-12-14T05:54:52;4.30;99.90
2523;DHT22;1272;53.332;9.860;2023-12-14T05:57:18;4.30;99.90
2523;DHT22;1272;53.332;9.860;2023-12-14T05:59:43;4.40;99.90
2523;DHT22;1272;53.332;9.860;2023-12-14T06:02:09;4.40;99.90
2523;DHT22;1272;53.332;9.860;2023-12-14T06:04:35;4.40;99.90
2523;DHT22;1272;53.332;9.860;2023-12-14T06:07:01;4.40;99.90
2523;DHT22;1272;53.332;9.860;2023-12-14T06:09:26;4.40;99.90
2523;DHT22;1272;53.332;9.860;2023-12-14T06:12:00;4.40;99.90
2523;DHT22;1272;53.332;9.860;2023-12-14T06:14:26;4.40;99.90
2523;DHT22;1272;53.332;9.860;2023-12-14T06:16:52;4.30;99.90
2523;DHT22;1272;53.332;9.860;2023-12-14T06:19:18;4.30;99.90
2523;DHT22;1272;53.332;9.860;2023-12-14T06:21:43;4.30;99.90
2523;DHT22;1272;53.332;9.860;2023-12-14T06:24:09;4.30;99.90
2523;DHT22;1272;53.332;9.860;2023-12-14T06:26:35;4.40;99.90
2523;DHT22;1272;53.332;9.860;2023-12-14T06:29:01;4.30;99.90
2523;DHT22;1272;53.332;9.860;2023-12-14T06:31:26;4.30;99.90
2523;DHT22;1272;53.332;9.860;2023-12-14T06:33:52;4.30;99.90
2523;DHT22;1272;53.332;9.860;2023-12-14T06:36:18;4.40;99.90
2523;DHT22;1272;53.332;9.860;2023-12-14T06:38:44;4.50;99.90
2523;DHT22;1272;53.332;9.860;2023-12-14T06:41:18;4.50;99.90
2523;DHT22;1272;53.332;9.860;2023-12-14T06:43:44;4.40;99.90
2523;DHT22;1272;53.332;9.860;2023-12-14T06:46:10;4.40;99.90
2523;DHT22;1272;53.332;9.860;2023-12-14T06:48:35;4.40;99.90
2523;DHT22;1272;53.332;9.860;2023-12-14T06:51:01;4.50;99.90
2523;DHT22;1272;53.332;9.860;2023-12-14T06:53:27;4.50;99.90
2523;DHT22;1272;53.332;9.860;2023-12-14T06:55:52;4.40;99.90
2523;DHT22;1272;53.332;9.860;2023-12-14T06:58:18;4.40;99.90
2523;DHT22;1272;53.332;9.860;2023-12-14T07:00:44;4.50;99.90
2523;DHT22;1272;53.332;9.860;2023-12-14T07:03:09;4.40;99.90
2523;DHT22;1272;53.332;9.860;2023-12-14T07:05:35;4.40;99.90
2523;DHT22;1272;53.332;9.860;2023-12-14T07:08:01;4.40;99.90
2523;DHT22;1272;53.332;9.860;2023-12-14T07:10:27;4.40;99.90
2523;DHT22;1272;53.332;9.860;2023-12-14T07:12:53;4.50;99.90
2523;DHT22;1272;53.332;9.860;2023-12-14T07:15:18;4.40;99.90
2523;DHT22;1272;53.332;9.860;2023-12-14T07:17:44;4.50;99.90
2523;DHT22;1272;53.332;9.860;2023-12-14T07:20:10;4.40;99.90
2523;DHT22;1272;53.332;9.860;2023-12-14T07:22:37;4.40;99.90
2523;DHT22;1272;53.332;9.860;2023-12-14T07:25:03;4.30;99.90
2523;DHT22;1272;53.332;9.860;2023-12-14T07:27:29;4.40;99.90
2523;DHT22;1272;53.332;9.860;2023-12-14T07:29:55;4.40;99.90
2523;DHT22;1272;53.332;9.860;2023-12-14T07:32:21;4.40;99.90
2523;DHT22;1272;53.332;9.860;2023-12-14T07:34:47;4.40;99.90
2523;DHT22;1272;53.332;9.860;2023-12-14T07:37:13;4.30;99.90
2523;DHT22;1272;53.332;9.860;2023-12-14T07:39:38;4.40;99.90
2523;DHT22;1272;53.332;9.860;2023-12-14T07:42:04;4.50;99.90
2523;DHT22;1272;53.332;9.860;2023-12-14T07:44:31;4.40;99.90
2523;DHT22;1272;53.332;9.860;2023-12-14T07:46:59;4.40;99.90
2523;DHT22;1272;53.332;9.860;2023-12-14T07:49:25;4.40;99.90
2523;DHT22;1272;53.332;9.860;2023-12-14T07:51:51;4.40;99.90
2523;DHT22;1272;53.332;9.860;2023-12-14T07:54:17;4.50;99.90
2523;DHT22;1272;53.332;9.860;2023-12-14T07:56:44;4.40;99.90
2523;DHT22;1272;53.332;9.860;2023-12-14T07:59:10;4.40;99.90
2523;DHT22;1272;53.332;9.860;2023-12-14T08:01:36;4.40;99.90
2523;DHT22;1272;53.332;9.860;2023-12-14T08:04:02;4.40;99.90
2523;DHT22;1272;53.332;9.860;2023-12-14T08:06:28;4.50;99.90
2523;DHT22;1272;53.332;9.860;2023-12-14T08:08:54;4.50;99.90
2523;DHT22;1272;53.332;9.860;2023-12-14T08:11:20;4.50;99.90
2523;DHT22;1272;53.332;9.860;2023-12-14T08:13:45;4.50;99.90
2523;DHT22;1272;53.332;9.860;2023-12-14T08:16:12;4.50;99.90
2523;DHT22;1272;53.332;9.860;2023-12-14T08:18:38;4.50;99.90
2523;DHT22;1272;53.332;9.860;2023-12-14T08:21:04;4.50;99.90
2523;DHT22;1272;53.332;9.860;2023-12-14T08:23:30;4.50;99.90
2523;DHT22;1272;53.332;9.860;2023-12-14T08:25:57;4.50;99.90
2523;DHT22;1272;53.332;9.860;2023-12-14T08:28:23;4.50;99.90
2523;DHT22;1272;53.332;9.860;2023-12-14T08:30:49;4.50;99.90
2523;DHT22;1272;53.332;9.860;2023-12-14T08:33:15;4.50;99.90
2523;DHT22;1272;53.332;9.860;2023-12-14T08:35:41;4.60;99.90
2523;DHT22;1272;53.332;9.860;2023-12-14T08:38:06;4.60;99.90
2523;DHT22;1272;53.332;9.860;2023-12-14T08:40:32;4.70;99.90
2523;DHT22;1272;53.332;9.860;2023-12-14T08:42:58;4.70;99.90
2523;DHT22;1272;53.332;9.860;2023-12-14T08:45:24;4.70;99.90
2523;DHT22;1272;53.332;9.860;2023-12-14T08:47:50;4.70;99.90
2523;DHT22;1272;53.332;9.860;2023-12-14T08:50:15;4.70;99.90
2523;DHT22;1272;53.332;9.860;2023-12-14T08:52:41;4.70;99.90
2523;DHT22;1272;53.332;9.860;2023-12-14T08:55:08;4.70;99.90
2523;DHT22;1272;53.332;9.860;2023-12-14T08:57:34;4.70;99.90
2523;DHT22;1272;53.332;9.860;2023-12-14T09:00:00;4.70;99.90
2523;DHT22;1272;53.332;9.860;2023-12-14T09:02:26;4.80;99.90
2523;DHT22;1272;53.332;9.860;2023-12-14T09:04:52;4.80;99.90
2523;DHT22;1272;53.332;9.860;2023-12-14T09:07:18;4.80;99.90
2523;DHT22;1272;53.332;9.860;2023-12-14T09:09:43;4.80;99.90
2523;DHT22;1272;53.332;9.860;2023-12-14T09:12:09;4.80;99.90
2523;DHT22;1272;53.332;9.860;2023-12-14T09:14:35;4.80;99.90
2523;DHT22;1272;53.332;9.860;2023-12-14T09:17:01;4.90;99.90
2523;DHT22;1272;53.332;9.860;2023-12-14T09:19:29;4.90;99.90
2523;DHT22;1272;53.332;9.860;2023-12-14T09:21:55;4.90;99.90
2523;DHT22;1272;53.332;9.860;2023-12-14T09:24:21;4.90;99.90
2523;DHT22;1272;53.332;9.860;2023-12-14T09:26:47;4.90;99.90
2523;DHT22;1272;53.332;9.860;2023-12-14T09:29:12;4.80;99.90
2523;DHT22;1272;53.332;9.860;2023-12-14T09:31:43;4.80;99.90
2523;DHT22;1272;53.332;9.860;2023-12-14T09:34:10;4.80;99.90
2523;DHT22;1272;53.332;9.860;2023-12-14T09:36:36;4.80;99.90
2523;DHT22;1272;53.332;9.860;2023-12-14T09:39:02;4.80;99.90
2523;DHT22;1272;53.332;9.860;2023-12-14T09:41:28;4.80;99.90
2523;DHT22;1272;53.332;9.860;2023-12-14T09:43:54;4.90;99.90
2523;DHT22;1272;53.332;9.860;2023-12-14T09:46:21;4.80;99.90
2523;DHT22;1272;53.332;9.860;2023-12-14T09:48:50;4.90;99.90
2523;DHT22;1272;53.332;9.860;2023-12-14T09:51:16;5.00;99.90
2523;DHT22;1272;53.332;9.860;2023-12-14T09:53:42;5.00;99.90
2523;DHT22;1272;53.332;9.860;2023-12-14T09:56:08;5.00;99.90
2523;DHT22;1272;53.332;9.860;2023-12-14T09:58:34;5.00;99.90
2523;DHT22;1272;53.332;9.860;2023-12-14T10:01:00;5.10;99.90
2523;DHT22;1272;53.332;9.860;2023-12-14T10:03:29;5.10;99.90
2523;DHT22;1272;53.332;9.860;2023-12-14T10:05:56;5.20;99.90
2523;DHT22;1272;53.332;9.860;2023-12-14T10:08:22;5.20;96.80
2523;DHT22;1272;53.332;9.860;2023-12-14T10:10:50;5.20;99.90
2523;DHT22;1272;53.332;9.860;2023-12-14T10:13:18;5.30;90.90
2523;DHT22;1272;53.332;9.860;2023-12-14T10:15:46;5.30;58.80
2523;DHT22;1272;53.332;9.860;2023-12-14T10:18:24;5.30;10.30
2523;DHT22;1272;53.332;9.860;2023-12-14T10:20:51;5.20;11.50
2523;DHT22;1272;53.332;9.860;2023-12-14T10:23:17;5.30;33.70
2523;DHT22;1272;53.332;9.860;2023-12-14T10:25:43;5.30;19.40
2523;DHT22;1272;53.332;9.860;2023-12-14T10:28:12;5.30;40.10
2523;DHT22;1272;53.332;9.860;2023-12-14T10:30:39;5.30;67.60
2523;DHT22;1272;53.332;9.860;2023-12-14T10:33:05;5.30;90.00
2523;DHT22;1272;53.332;9.860;2023-12-14T10:35:30;5.30;95.60
2523;DHT22;1272;53.332;9.860;2023-12-14T10:37:58;5.40;80.50
2523;DHT22;1272;53.332;9.860;2023-12-14T10:40:27;5.40;91.10
2523;DHT22;1272;53.332;9.860;2023-12-14T10:42:55;5.40;7.80
2523;DHT22;1272;53.332;9.860;2023-12-14T10:45:25;5.50;1.00
2523;DHT22;1272;53.332;9.860;2023-12-14T10:47:53;5.40;1.00
2523;DHT22;1272;53.332;9.860;2023-12-14T10:50:19;5.40;1.00
2523;DHT22;1272;53.332;9.860;2023-12-14T10:52:45;5.50;1.00
2523;DHT22;1272;53.332;9.860;2023-12-14T10:55:44;5.50;1.00
2523;DHT22;1272;53.332;9.860;2023-12-14T10:58:10;5.50;1.00
2523;DHT22;1272;53.332;9.860;2023-12-14T11:00:37;5.50;1.00
2523;DHT22;1272;53.332;9.860;2023-12-14T11:03:04;5.60;1.00
2523;DHT22;1272;53.332;9.860;2023-12-14T11:05:32;5.60;1.00
2523;DHT22;1272;53.332;9.860;2023-12-14T11:08:05;5.60;1.00
2523;DHT22;1272;53.332;9.860;2023-12-14T11:10:42;5.50;1.00
2523;DHT22;1272;53.332;9.860;2023-12-14T11:13:10;5.60;99.90
2523;DHT22;1272;53.332;9.860;2023-12-14T11:15:38;5.50;99.90
2523;DHT22;1272;53.332;9.860;2023-12-14T11:23:16;5.50;1.00
2523;DHT22;1272;53.332;9.860;2023-12-14T11:25:43;5.40;1.00
2523;DHT22;1272;53.332;9.860;2023-12-14T11:28:10;5.40;1.00
2523;DHT22;1272;53.332;9.860;2023-12-14T11:30:36;5.50;1.00
2523;DHT22;1272;53.332;9.860;2023-12-14T11:33:03;5.50;99.90
2523;DHT22;1272;53.332;9.860;2023-12-14T11:35:29;5.50;99.90
2523;DHT22;1272;53.332;9.860;2023-12-14T11:37:56;5.40;1.00
2523;DHT22;1272;53.332;9.860;2023-12-14T11:40:25;5.40;1.00
2523;DHT22;1272;53.332;9.860;2023-12-14T11:43:03;5.50;1.00
2523;DHT22;1272;53.332;9.860;2023-12-14T11:45:34;5.50;1.00
2523;DHT22;1272;53.332;9.860;2023-12-14T11:47:59;5.50;99.90
2523;DHT22;1272;53.332;9.860;2023-12-14T11:50:27;5.50;99.90
2523;DHT22;1272;53.332;9.860;2023-12-14T11:52:53;5.50;99.90
2523;DHT22;1272;53.332;9.860;2023-12-14T11:55:19;5.40;99.90
2523;DHT22;1272;53.332;9.860;2023-12-14T11:57:47;5.40;99.90
2523;DHT22;1272;53.332;9.860;2023-12-14T12:00:14;5.40;1.00
2523;DHT22;1272;53.332;9.860;2023-12-14T12:02:40;5.40;1.00
2523;DHT22;1272;53.332;9.860;2023-12-14T12:05:08;5.40;1.00
2523;DHT22;1272;53.332;9.860;2023-12-14T12:07:39;5.40;1.00
2523;DHT22;1272;53.332;9.860;2023-12-14T12:10:05;5.40;1.00
2523;DHT22;1272;53.332;9.860;2023-12-14T12:12:33;5.40;1.00
2523;DHT22;1272;53.332;9.860;2023-12-14T12:14:59;5.40;1.00
2523;DHT22;1272;53.332;9.860;2023-12-14T12:17:25;5.50;1.00
2523;DHT22;1272;53.332;9.860;2023-12-14T12:19:51;5.50;1.00
2523;DHT22;1272;53.332;9.860;2023-12-14T12:22:17;5.40;1.00
2523;DHT22;1272;53.332;9.860;2023-12-14T12:24:43;5.40;1.00
2523;DHT22;1272;53.332;9.860;2023-12-14T12:27:09;5.50;1.00
2523;DHT22;1272;53.332;9.860;2023-12-14T12:29:34;5.40;1.00
2523;DHT22;1272;53.332;9.860;2023-12-14T12:32:00;5.50;1.00
2523;DHT22;1272;53.332;9.860;2023-12-14T12:34:26;5.50;1.00
2523;DHT22;1272;53.332;9.860;2023-12-14T12:36:52;5.40;1.00
2523;DHT22;1272;53.332;9.860;2023-12-14T12:39:17;5.40;1.00
2523;DHT22;1272;53.332;9.860;2023-12-14T12:41:43;5.40;1.00
2523;DHT22;1272;53.332;9.860;2023-12-14T12:44:09;5.50;1.00
2523;DHT22;1272;53.332;9.860;2023-12-14T12:46:35;5.50;1.00
2523;DHT22;1272;53.332;9.860;2023-12-14T12:49:04;5.50;1.00
2523;DHT22;1272;53.332;9.860;2023-12-14T12:51:31;5.60;1.00
2523;DHT22;1272;53.332;9.860;2023-12-14T12:53:58;5.50;1.00
2523;DHT22;1272;53.332;9.860;2023-12-14T12:56:25;5.60;1.00
2523;DHT22;1272;53.332;9.860;2023-12-14T12:58:51;5.60;1.00
2523;DHT22;1272;53.332;9.860;2023-12-14T13:01:22;5.60;99.90
2523;DHT22;1272;53.332;9.860;2023-12-14T13:03:52;5.60;1.00
2523;DHT22;1272;53.332;9.860;2023-12-14T13:06:18;5.50;1.00
2523;DHT22;1272;53.332;9.860;2023-12-14T13:08:44;5.50;1.00
2523;DHT22;1272;53.332;9.860;2023-12-14T13:11:09;5.50;1.00
2523;DHT22;1272;53.332;9.860;2023-12-14T13:13:35;5.50;1.00
2523;DHT22;1272;53.332;9.860;2023-12-14T13:16:00;5.50;1.00
2523;DHT22;1272;53.332;9.860;2023-12-14T13:18:26;5.60;1.00
2523;DHT22;1272;53.332;9.860;2023-12-14T13:20:52;5.50;1.00
2523;DHT22;1272;53.332;9.860;2023-12-14T13:23:20;5.50;1.00
2523;DHT22;1272;53.332;9.860;2023-12-14T13:25:46;5.50;99.90
2523;DHT22;1272;53.332;9.860;2023-12-14T13:28:12;5.50;99.90
2523;DHT22;1272;53.332;9.860;2023-12-14T13:30:37;5.50;1.00
2523;DHT22;1272;53.332;9.860;2023-12-14T13:33:03;5.40;1.00
2523;DHT22;1272;53.332;9.860;2023-12-14T13:35:29;5.40;1.00
2523;DHT22;1272;53.332;9.860;2023-12-14T13:37:55;5.40;1.00
2523;DHT22;1272;53.332;9.860;2023-12-14T13:40:21;5.40;1.00
2523;DHT22;1272;53.332;9.860;2023-12-14T13:42:46;5.40;1.00
2523;DHT22;1272;53.332;9.860;2023-12-14T13:45:13;5.40;1.00
2523;DHT22;1272;53.332;9.860;2023-12-14T13:47:38;5.40;1.00
2523;DHT22;1272;53.332;9.860;2023-12-14T13:50:04;5.40;1.00
2523;DHT22;1272;53.332;9.860;2023-12-14T13:52:30;5.40;1.00
2523;DHT22;1272;53.332;9.860;2023-12-14T13:54:56;5.50;1.00
2523;DHT22;1272;53.332;9.860;2023-12-14T13:57:24;5.40;1.00
2523;DHT22;1272;53.332;9.860;2023-12-14T13:59:50;5.40;1.00
2523;DHT22;1272;53.332;9.860;2023-12-14T14:02:16;5.40;1.00
2523;DHT22;1272;53.332;9.860;2023-12-14T14:04:41;5.40;1.00
2523;DHT22;1272;53.332;9.860;2023-12-14T14:07:07;5.40;1.00
2523;DHT22;1272;53.332;9.860;2023-12-14T14:09:33;5.40;1.00
2523;DHT22;1272;53.332;9.860;2023-12-14T14:11:58;5.40;1.00
2523;DHT22;1272;53.332;9.860;2023-12-14T14:14:24;5.40;1.00
2523;DHT22;1272;53.332;9.860;2023-12-14T14:16:50;5.40;1.00
2523;DHT22;1272;53.332;9.860;2023-12-14T14:19:15;5.30;1.00
2523;DHT22;1272;53.332;9.860;2023-12-14T14:21:41;5.30;1.00
2523;DHT22;1272;53.332;9.860;2023-12-14T14:24:07;5.30;1.00
2523;DHT22;1272;53.332;9.860;2023-12-14T14:26:33;5.30;1.00
2523;DHT22;1272;53.332;9.860;2023-12-14T14:28:58;5.30;1.00
2523;DHT22;1272;53.332;9.860;2023-12-14T14:31:30;5.30;1.00
2523;DHT22;1272;53.332;9.860;2023-12-14T14:34:00;5.30;1.00
2523;DHT22;1272;53.332;9.860;2023-12-14T14:36:26;5.20;1.00
2523;DHT22;1272;53.332;9.860;2023-12-14T14:38:52;5.20;1.00
2523;DHT22;1272;53.332;9.860;2023-12-14T14:41:20;5.20;1.00
2523;DHT22;1272;53.332;9.860;2023-12-14T14:43:46;5.10;1.00
2523;DHT22;1272;53.332;9.860;2023-12-14T14:46:12;5.10;1.00
2523;DHT22;1272;53.332;9.860;2023-12-14T14:48:38;5.20;4.40
2523;DHT22;1272;53.332;9.860;2023-12-14T14:51:04;5.10;7.30
2523;DHT22;1272;53.332;9.860;2023-12-14T14:53:30;5.10;1.00
2523;DHT22;1272;53.332;9.860;2023-12-14T14:55:56;5.10;13.60
2523;DHT22;1272;53.332;9.860;2023-12-14T14:58:22;5.10;13.40
2523;DHT22;1272;53.332;9.860;2023-12-14T15:00:48;5.10;20.00
2523;DHT22;1272;53.332;9.860;2023-12-14T15:03:14;5.00;9.30
2523;DHT22;1272;53.332;9.860;2023-12-14T15:05:40;5.00;21.50
2523;DHT22;1272;53.332;9.860;2023-12-14T15:08:06;5.00;35.40
2523;DHT22;1272;53.332;9.860;2023-12-14T15:10:35;5.00;24.60
2523;DHT22;1272;53.332;9.860;2023-12-14T15:13:00;5.00;21.40
2523;DHT22;1272;53.332;9.860;2023-12-14T15:15:26;5.00;37.00
2523;DHT22;1272;53.332;9.860;2023-12-14T15:17:52;4.90;49.20
2523;DHT22;1272;53.332;9.860;2023-12-14T15:20:21;4.90;57.90
2523;DHT22;1272;53.332;9.860;2023-12-14T15:22:46;4.90;79.10
2523;DHT22;1272;53.332;9.860;2023-12-14T15:25:12;4.80;93.80
2523;DHT22;1272;53.332;9.860;2023-12-14T15:27:40;4.80;99.10
2523;DHT22;1272;53.332;9.860;2023-12-14T15:30:07;4.80;99.90
2523;DHT22;1272;53.332;9.860;2023-12-14T15:32:37;4.80;99.90
2523;DHT22;1272;53.332;9.860;2023-12-14T15:35:03;4.80;99.90
2523;DHT22;1272;53.332;9.860;2023-12-14T15:37:29;4.70;99.50
2523;DHT22;1272;53.332;9.860;2023-12-14T15:39:55;4.70;99.90
2523;DHT22;1272;53.332;9.860;2023-12-14T15:42:20;4.70;99.90
2523;DHT22;1272;53.332;9.860;2023-12-14T15:44:46;4.60;99.90
2523;DHT22;1272;53.332;9.860;2023-12-14T15:47:12;4.60;99.90
2523;DHT22;1272;53.332;9.860;2023-12-14T15:49:39;4.50;99.90
2523;DHT22;1272;53.332;9.860;2023-12-14T15:52:06;4.40;95.60
2523;DHT22;1272;53.332;9.860;2023-12-14T15:54:32;4.30;95.00
2523;DHT22;1272;53.332;9.860;2023-12-14T15:56:58;4.30;79.60
2523;DHT22;1272;53.332;9.860;2023-12-14T15:59:24;4.20;87.80
2523;DHT22;1272;53.332;9.860;2023-12-14T16:01:50;4.10;89.70
2523;DHT22;1272;53.332;9.860;2023-12-14T16:04:16;4.10;68.60
2523;DHT22;1272;53.332;9.860;2023-12-14T16:06:42;4.00;96.50
2523;DHT22;1272;53.332;9.860;2023-12-14T16:09:08;4.00;94.20
2523;DHT22;1272;53.332;9.860;2023-12-14T16:11:34;3.90;93.30
2523;DHT22;1272;53.332;9.860;2023-12-14T16:13:59;3.80;73.20
2523;DHT22;1272;53.332;9.860;2023-12-14T16:16:25;3.80;95.00
2523;DHT22;1272;53.332;9.860;2023-12-14T16:18:51;3.80;99.90
2523;DHT22;1272;53.332;9.860;2023-12-14T16:21:16;3.70;99.90